sensor_id;sensor_type;location;lat;lon;timestamp;pressure;altitude;pressure_sealevel;temperature
35582;BMP180;21687;48.900;9.188;2023-08-31T00:00:50;97886.00;;;13.00
35582;BMP180;21687;48.900;9.188;2023-08-31T00:03:20;97885.00;;;13.00
35582;BMP180;21687;48.900;9.188;2023-08-31T00:05:47;97889.00;;;12.90
35582;BMP180;21687;48.900;9.188;2023-08-31T00:08:13;97891.00;;;12.80
35582;BMP180;21687;48.900;9.188;2023-08-31T00:10:39;97887.00;;;12.70
35582;BMP180;21687;48.900;9.188;2023-08-31T00:13:06;97882.00;;;12.60
35582;BMP180;21687;48.900;9.188;2023-08-31T00:15:35;97886.00;;;12.50
35582;BMP180;21687;48.900;9.188;2023-08-31T00:18:03;97893.00;;;12.40
35582;BMP180;21687;48.900;9.188;2023-08-31T00:20:30;97892.00;;;12.30
35582;BMP180;21687;48.900;9.188;2023-08-31T00:22:57;97880.00;;;12.30
35582;BMP180;21687;48.900;9.188;2023-08-31T00:25:24;97896.00;;;12.30
35582;BMP180;21687;48.900;9.188;2023-08-31T00:27:50;97894.00;;;12.10
35582;BMP180;21687;48.900;9.188;2023-08-31T00:30:18;97898.00;;;12.20
35582;BMP180;21687;48.900;9.188;2023-08-31T00:32:45;97896.00;;;12.10
35582;BMP180;21687;48.900;9.188;2023-08-31T00:35:13;97904.00;;;12.10
35582;BMP180;21687;48.900;9.188;2023-08-31T00:37:40;97902.00;;;12.00
35582;BMP180;21687;48.900;9.188;2023-08-31T00:40:06;97914.00;;;11.90
35582;BMP180;21687;48.900;9.188;2023-08-31T00:42:34;97912.00;;;12.00
35582;BMP180;21687;48.900;9.188;2023-08-31T00:45:01;97912.00;;;12.00
35582;BMP180;21687;48.900;9.188;2023-08-31T00:47:28;97913.00;;;12.00
35582;BMP180;21687;48.900;9.188;2023-08-31T00:49:54;97917.00;;;12.00
35582;BMP180;21687;48.900;9.188;2023-08-31T00:52:21;97922.00;;;12.00
35582;BMP180;21687;48.900;9.188;2023-08-31T00:54:47;97917.00;;;12.10
35582;BMP180;21687;48.900;9.188;2023-08-31T00:57:15;97920.00;;;12.20
35582;BMP180;21687;48.900;9.188;2023-08-31T00:59:41;97918.00;;;12.30
35582;BMP180;21687;48.900;9.188;2023-08-31T01:02:18;97909.00;;;12.40
35582;BMP180;21687;48.900;9.188;2023-08-31T01:12:59;97897.00;;;12.10
35582;BMP180;21687;48.900;9.188;2023-08-31T01:15:28;97897.00;;;12.10
35582;BMP180;21687;48.900;9.188;2023-08-31T01:17:57;97899.00;;;12.00
35582;BMP180;21687;48.900;9.188;2023-08-31T01:20:37;97899.00;;;12.00
35582;BMP180;21687;48.900;9.188;2023-08-31T01:23:13;97911.00;;;12.00
35582;BMP180;21687;48.900;9.188;2023-08-31T01:25:42;97908.00;;;11.90
35582;BMP180;21687;48.900;9.188;2023-08-31T01:28:10;97910.00;;;11.90
35582;BMP180;21687;48.900;9.188;2023-08-31T01:30:36;97909.00;;;11.80
35582;BMP180;21687;48.900;9.188;2023-08-31T01:33:02;97910.00;;;11.80
35582;BMP180;21687;48.900;9.188;2023-08-31T01:35:36;97914.00;;;11.70
35582;BMP180;21687;48.900;9.188;2023-08-31T01:38:06;97905.00;;;11.70
35582;BMP180;21687;48.900;9.188;2023-08-31T01:40:42;97912.00;;;11.80
35582;BMP180;21687;48.900;9.188;2023-08-31T01:43:11;97920.00;;;11.70
35582;BMP180;21687;48.900;9.188;2023-08-31T01:45:38;97921.00;;;11.80
35582;BMP180;21687;48.900;9.188;2023-08-31T01:48:05;97931.00;;;11.80
35582;BMP180;21687;48.900;9.188;2023-08-31T01:50:32;97935.00;;;11.80
35582;BMP180;21687;48.900;9.188;2023-08-31T01:52:58;97936.00;;;11.90
35582;BMP180;21687;48.900;9.188;2023-08-31T01:55:25;97943.00;;;11.90
35582;BMP180;21687;48.900;9.188;2023-08-31T01:57:51;97941.00;;;12.00
35582;BMP180;21687;48.900;9.188;2023-08-31T02:00:19;97937.00;;;12.10
35582;BMP180;21687;48.900;9.188;2023-08-31T02:02:45;97934.00;;;12.00
35582;BMP180;21687;48.900;9.188;2023-08-31T02:05:12;97943.00;;;12.00
35582;BMP180;21687;48.900;9.188;2023-08-31T02:07:38;97944.00;;;12.10
35582;BMP180;21687;48.900;9.188;2023-08-31T02:10:06;97940.00;;;12.10
35582;BMP180;21687;48.900;9.188;2023-08-31T02:12:33;97940.00;;;12.20
35582;BMP180;21687;48.900;9.188;2023-08-31T02:15:00;97936.00;;;12.20
35582;BMP180;21687;48.900;9.188;2023-08-31T02:17:26;97939.00;;;12.30
35582;BMP180;21687;48.900;9.188;2023-08-31T02:19:53;97937.00;;;12.40
35582;BMP180;21687;48.900;9.188;2023-08-31T02:22:19;97940.00;;;12.30
35582;BMP180;21687;48.900;9.188;2023-08-31T02:24:46;97937.00;;;12.40
35582;BMP180;21687;48.900;9.188;2023-08-31T02:27:12;97935.00;;;12.40
35582;BMP180;21687;48.900;9.188;2023-08-31T02:29:39;97932.00;;;12.40
35582;BMP180;21687;48.900;9.188;2023-08-31T02:32:05;97939.00;;;12.50
35582;BMP180;21687;48.900;9.188;2023-08-31T02:34:32;97945.00;;;12.40
35582;BMP180;21687;48.900;9.188;2023-08-31T02:36:58;97944.00;;;12.50
35582;BMP180;21687;48.900;9.188;2023-08-31T02:39:25;97938.00;;;12.50
35582;BMP180;21687;48.900;9.188;2023-08-31T02:41:51;97939.00;;;12.50
35582;BMP180;21687;48.900;9.188;2023-08-31T02:44:18;97944.00;;;12.50
35582;BMP180;21687;48.900;9.188;2023-08-31T02:46:44;97956.00;;;12.60
35582;BMP180;21687;48.900;9.188;2023-08-31T02:49:10;97952.00;;;12.60
35582;BMP180;21687;48.900;9.188;2023-08-31T02:51:36;97963.00;;;12.60
35582;BMP180;21687;48.900;9.188;2023-08-31T02:54:03;97961.00;;;12.60
35582;BMP180;21687;48.900;9.188;2023-08-31T02:56:29;97959.00;;;12.70
35582;BMP180;21687;48.900;9.188;2023-08-31T02:58:55;97959.00;;;12.70
35582;BMP180;21687;48.900;9.188;2023-08-31T03:01:22;97965.00;;;12.70
35582;BMP180;21687;48.900;9.188;2023-08-31T03:03:50;97959.00;;;12.70
35582;BMP180;21687;48.900;9.188;2023-08-31T03:06:16;97958.00;;;12.70
35582;BMP180;21687;48.900;9.188;2023-08-31T03:08:42;97965.00;;;12.70
35582;BMP180;21687;48.900;9.188;2023-08-31T03:11:09;97954.00;;;12.60
35582;BMP180;21687;48.900;9.188;2023-08-31T03:13:35;97966.00;;;12.60
35582;BMP180;21687;48.900;9.188;2023-08-31T03:16:02;97957.00;;;12.60
35582;BMP180;21687;48.900;9.188;2023-08-31T03:18:29;97955.00;;;12.60
35582;BMP180;21687;48.900;9.188;2023-08-31T03:20:56;97955.00;;;12.50
35582;BMP180;21687;48.900;9.188;2023-08-31T03:23:22;97960.00;;;12.40
35582;BMP180;21687;48.900;9.188;2023-08-31T03:25:48;97960.00;;;12.30
35582;BMP180;21687;48.900;9.188;2023-08-31T03:28:15;97966.00;;;12.20
35582;BMP180;21687;48.900;9.188;2023-08-31T03:30:41;97971.00;;;12.20
35582;BMP180;21687;48.900;9.188;2023-08-31T03:33:08;97970.00;;;12.20
35582;BMP180;21687;48.900;9.188;2023-08-31T03:35:34;97972.00;;;12.10
35582;BMP180;21687;48.900;9.188;2023-08-31T03:38:00;97983.00;;;12.10
35582;BMP180;21687;48.900;9.188;2023-08-31T03:40:26;97979.00;;;12.10
35582;BMP180;21687;48.900;9.188;2023-08-31T03:42:53;97975.00;;;12.00
35582;BMP180;21687;48.900;9.188;2023-08-31T03:45:20;97972.00;;;12.10
35582;BMP180;21687;48.900;9.188;2023-08-31T03:47:47;97977.00;;;12.00
35582;BMP180;21687;48.900;9.188;2023-08-31T03:50:13;97975.00;;;12.00
35582;BMP180;21687;48.900;9.188;2023-08-31T03:52:39;97987.00;;;12.10
35582;BMP180;21687;48.900;9.188;2023-08-31T03:55:06;97984.00;;;12.10
35582;BMP180;21687;48.900;9.188;2023-08-31T03:57:32;97981.00;;;12.10
35582;BMP180;21687;48.900;9.188;2023-08-31T03:59:58;97986.00;;;12.00
35582;BMP180;21687;48.900;9.188;2023-08-31T04:02:25;97991.00;;;12.00
35582;BMP180;21687;48.900;9.188;2023-08-31T04:04:51;97994.00;;;12.00
35582;BMP180;21687;48.900;9.188;2023-08-31T04:07:18;97989.00;;;12.00
35582;BMP180;21687;48.900;9.188;2023-08-31T04:09:44;97999.00;;;12.00
35582;BMP180;21687;48.900;9.188;2023-08-31T04:12:11;97991.00;;;12.00
35582;BMP180;21687;48.900;9.188;2023-08-31T04:14:37;97992.00;;;11.90
35582;BMP180;21687;48.900;9.188;2023-08-31T04:17:03;98000.00;;;11.90
35582;BMP180;21687;48.900;9.188;2023-08-31T04:19:31;97991.00;;;11.80
35582;BMP180;21687;48.900;9.188;2023-08-31T04:21:57;97993.00;;;11.90
35582;BMP180;21687;48.900;9.188;2023-08-31T04:24:23;97998.00;;;11.80
35582;BMP180;21687;48.900;9.188;2023-08-31T04:26:50;97989.00;;;11.90
35582;BMP180;21687;48.900;9.188;2023-08-31T04:29:17;98000.00;;;11.90
35582;BMP180;21687;48.900;9.188;2023-08-31T04:31:43;97992.00;;;11.80
35582;BMP180;21687;48.900;9.188;2023-08-31T04:34:09;97997.00;;;11.80
35582;BMP180;21687;48.900;9.188;2023-08-31T04:36:36;98004.00;;;11.70
35582;BMP180;21687;48.900;9.188;2023-08-31T04:39:02;98008.00;;;11.70
35582;BMP180;21687;48.900;9.188;2023-08-31T04:41:29;98006.00;;;11.60
35582;BMP180;21687;48.900;9.188;2023-08-31T04:43:56;98017.00;;;11.70
35582;BMP180;21687;48.900;9.188;2023-08-31T04:46:22;98017.00;;;11.60
35582;BMP180;21687;48.900;9.188;2023-08-31T04:48:48;98022.00;;;11.70
35582;BMP180;21687;48.900;9.188;2023-08-31T04:51:48;98025.00;;;11.70
35582;BMP180;21687;48.900;9.188;2023-08-31T04:54:14;98015.00;;;11.60
35582;BMP180;21687;48.900;9.188;2023-08-31T04:56:41;98016.00;;;11.60
35582;BMP180;21687;48.900;9.188;2023-08-31T04:59:07;98015.00;;;11.70
35582;BMP180;21687;48.900;9.188;2023-08-31T05:01:34;98013.00;;;11.70
35582;BMP180;21687;48.900;9.188;2023-08-31T05:04:02;98025.00;;;11.80
35582;BMP180;21687;48.900;9.188;2023-08-31T05:06:28;98021.00;;;11.80
35582;BMP180;21687;48.900;9.188;2023-08-31T05:08:54;98032.00;;;11.80
35582;BMP180;21687;48.900;9.188;2023-08-31T05:11:21;98037.00;;;11.80
35582;BMP180;21687;48.900;9.188;2023-08-31T05:13:48;98033.00;;;11.80
35582;BMP180;21687;48.900;9.188;2023-08-31T05:16:14;98031.00;;;11.80
35582;BMP180;21687;48.900;9.188;2023-08-31T05:18:40;98041.00;;;11.80
35582;BMP180;21687;48.900;9.188;2023-08-31T05:21:07;98042.00;;;11.80
35582;BMP180;21687;48.900;9.188;2023-08-31T05:23:34;98049.00;;;11.80
35582;BMP180;21687;48.900;9.188;2023-08-31T05:26:00;98048.00;;;11.80
35582;BMP180;21687;48.900;9.188;2023-08-31T05:28:27;98047.00;;;11.80
35582;BMP180;21687;48.900;9.188;2023-08-31T05:30:57;98056.00;;;11.90
35582;BMP180;21687;48.900;9.188;2023-08-31T05:33:26;98061.00;;;12.00
35582;BMP180;21687;48.900;9.188;2023-08-31T05:35:55;98060.00;;;12.00
35582;BMP180;21687;48.900;9.188;2023-08-31T05:38:21;98064.00;;;12.10
35582;BMP180;21687;48.900;9.188;2023-08-31T05:40:48;98071.00;;;12.00
35582;BMP180;21687;48.900;9.188;2023-08-31T05:43:14;98069.00;;;12.10
35582;BMP180;21687;48.900;9.188;2023-08-31T05:45:41;98074.00;;;12.10
35582;BMP180;21687;48.900;9.188;2023-08-31T05:48:08;98070.00;;;12.00
35582;BMP180;21687;48.900;9.188;2023-08-31T05:50:34;98065.00;;;12.00
35582;BMP180;21687;48.900;9.188;2023-08-31T05:53:03;98058.00;;;12.10
35582;BMP180;21687;48.900;9.188;2023-08-31T05:55:30;98072.00;;;12.10
35582;BMP180;21687;48.900;9.188;2023-08-31T05:57:56;98063.00;;;12.20
35582;BMP180;21687;48.900;9.188;2023-08-31T06:00:23;98070.00;;;12.20
35582;BMP180;21687;48.900;9.188;2023-08-31T06:02:50;98073.00;;;12.30
35582;BMP180;21687;48.900;9.188;2023-08-31T06:05:16;98073.00;;;12.40
35582;BMP180;21687;48.900;9.188;2023-08-31T06:07:43;98083.00;;;12.40
35582;BMP180;21687;48.900;9.188;2023-08-31T06:10:10;98084.00;;;12.40
35582;BMP180;21687;48.900;9.188;2023-08-31T06:12:37;98077.00;;;12.50
35582;BMP180;21687;48.900;9.188;2023-08-31T06:15:03;98080.00;;;12.60
35582;BMP180;21687;48.900;9.188;2023-08-31T06:17:30;98091.00;;;12.70
35582;BMP180;21687;48.900;9.188;2023-08-31T06:19:56;98091.00;;;12.80
35582;BMP180;21687;48.900;9.188;2023-08-31T06:22:22;98092.00;;;12.80
35582;BMP180;21687;48.900;9.188;2023-08-31T06:24:50;98096.00;;;12.70
35582;BMP180;21687;48.900;9.188;2023-08-31T06:27:18;98097.00;;;12.70
35582;BMP180;21687;48.900;9.188;2023-08-31T06:29:44;98110.00;;;12.70
35582;BMP180;21687;48.900;9.188;2023-08-31T06:32:11;98113.00;;;12.70
35582;BMP180;21687;48.900;9.188;2023-08-31T06:34:37;98113.00;;;12.80
35582;BMP180;21687;48.900;9.188;2023-08-31T06:37:03;98117.00;;;12.90
35582;BMP180;21687;48.900;9.188;2023-08-31T06:39:30;98123.00;;;13.10
35582;BMP180;21687;48.900;9.188;2023-08-31T06:41:56;98124.00;;;13.30
35582;BMP180;21687;48.900;9.188;2023-08-31T06:44:22;98120.00;;;13.60
35582;BMP180;21687;48.900;9.188;2023-08-31T06:46:49;98131.00;;;14.00
35582;BMP180;21687;48.900;9.188;2023-08-31T06:49:15;98135.00;;;14.30
35582;BMP180;21687;48.900;9.188;2023-08-31T06:51:41;98133.00;;;14.80
35582;BMP180;21687;48.900;9.188;2023-08-31T06:54:08;98132.00;;;15.30
35582;BMP180;21687;48.900;9.188;2023-08-31T06:56:34;98133.00;;;15.70
35582;BMP180;21687;48.900;9.188;2023-08-31T06:59:01;98131.00;;;15.70
35582;BMP180;21687;48.900;9.188;2023-08-31T07:01:29;98129.00;;;15.80
35582;BMP180;21687;48.900;9.188;2023-08-31T07:03:55;98133.00;;;15.90
35582;BMP180;21687;48.900;9.188;2023-08-31T07:06:22;98130.00;;;16.10
35582;BMP180;21687;48.900;9.188;2023-08-31T07:08:48;98139.00;;;16.20
35582;BMP180;21687;48.900;9.188;2023-08-31T07:11:16;98143.00;;;16.30
35582;BMP180;21687;48.900;9.188;2023-08-31T07:13:42;98144.00;;;16.30
35582;BMP180;21687;48.900;9.188;2023-08-31T07:16:08;98150.00;;;16.60
35582;BMP180;21687;48.900;9.188;2023-08-31T07:18:36;98158.00;;;16.60
35582;BMP180;21687;48.900;9.188;2023-08-31T07:21:03;98152.00;;;16.60
35582;BMP180;21687;48.900;9.188;2023-08-31T07:23:32;98150.00;;;16.70
35582;BMP180;21687;48.900;9.188;2023-08-31T07:25:59;98156.00;;;17.00
35582;BMP180;21687;48.900;9.188;2023-08-31T07:28:26;98160.00;;;17.20
35582;BMP180;21687;48.900;9.188;2023-08-31T07:31:05;98166.00;;;17.40
35582;BMP180;21687;48.900;9.188;2023-08-31T07:33:32;98167.00;;;17.50
35582;BMP180;21687;48.900;9.188;2023-08-31T07:36:01;98174.00;;;17.80
35582;BMP180;21687;48.900;9.188;2023-08-31T07:38:31;98172.00;;;17.90
35582;BMP180;21687;48.900;9.188;2023-08-31T07:40:57;98174.00;;;18.30
35582;BMP180;21687;48.900;9.188;2023-08-31T07:43:25;98188.00;;;18.40
35582;BMP180;21687;48.900;9.188;2023-08-31T07:45:52;98184.00;;;18.90
35582;BMP180;21687;48.900;9.188;2023-08-31T07:48:18;98177.00;;;19.30
35582;BMP180;21687;48.900;9.188;2023-08-31T07:50:45;98184.00;;;19.70
35582;BMP180;21687;48.900;9.188;2023-08-31T07:53:12;98185.00;;;20.10
35582;BMP180;21687;48.900;9.188;2023-08-31T07:55:39;98188.00;;;20.00
35582;BMP180;21687;48.900;9.188;2023-08-31T07:58:07;98188.00;;;19.70
35582;BMP180;21687;48.900;9.188;2023-08-31T08:00:33;98194.00;;;20.10
35582;BMP180;21687;48.900;9.188;2023-08-31T08:03:00;98199.00;;;20.10
35582;BMP180;21687;48.900;9.188;2023-08-31T08:05:26;98191.00;;;20.00
35582;BMP180;21687;48.900;9.188;2023-08-31T08:07:53;98189.00;;;20.10
35582;BMP180;21687;48.900;9.188;2023-08-31T08:10:19;98187.00;;;20.20
35582;BMP180;21687;48.900;9.188;2023-08-31T08:12:46;98179.00;;;19.40
35582;BMP180;21687;48.900;9.188;2023-08-31T08:15:13;98193.00;;;18.90
35582;BMP180;21687;48.900;9.188;2023-08-31T08:17:39;98208.00;;;18.20
35582;BMP180;21687;48.900;9.188;2023-08-31T08:20:07;98208.00;;;17.90
35582;BMP180;21687;48.900;9.188;2023-08-31T08:22:33;98202.00;;;17.70
35582;BMP180;21687;48.900;9.188;2023-08-31T08:25:00;98199.00;;;17.60
35582;BMP180;21687;48.900;9.188;2023-08-31T08:27:27;98201.00;;;17.70
35582;BMP180;21687;48.900;9.188;2023-08-31T08:29:54;98206.00;;;17.90
35582;BMP180;21687;48.900;9.188;2023-08-31T08:32:20;98204.00;;;18.00
35582;BMP180;21687;48.900;9.188;2023-08-31T08:34:46;98207.00;;;18.20
35582;BMP180;21687;48.900;9.188;2023-08-31T08:37:13;98216.00;;;18.00
35582;BMP180;21687;48.900;9.188;2023-08-31T08:39:39;98212.00;;;18.10
35582;BMP180;21687;48.900;9.188;2023-08-31T08:42:07;98213.00;;;18.70
35582;BMP180;21687;48.900;9.188;2023-08-31T08:44:36;98219.00;;;18.90
35582;BMP180;21687;48.900;9.188;2023-08-31T08:47:03;98218.00;;;18.90
35582;BMP180;21687;48.900;9.188;2023-08-31T08:49:31;98224.00;;;19.00
35582;BMP180;21687;48.900;9.188;2023-08-31T08:51:59;98221.00;;;19.00
35582;BMP180;21687;48.900;9.188;2023-08-31T08:54:25;98235.00;;;19.00
35582;BMP180;21687;48.900;9.188;2023-08-31T08:56:53;98226.00;;;19.10
35582;BMP180;21687;48.900;9.188;2023-08-31T08:59:19;98231.00;;;19.00
35582;BMP180;21687;48.900;9.188;2023-08-31T09:01:46;98229.00;;;18.90
35582;BMP180;21687;48.900;9.188;2023-08-31T09:04:13;98237.00;;;18.70
35582;BMP180;21687;48.900;9.188;2023-08-31T09:06:40;98238.00;;;18.40
35582;BMP180;21687;48.900;9.188;2023-08-31T09:09:09;98247.00;;;18.20
35582;BMP180;21687;48.900;9.188;2023-08-31T09:11:36;98239.00;;;18.00
35582;BMP180;21687;48.900;9.188;2023-08-31T09:14:19;98247.00;;;17.80
35582;BMP180;21687;48.900;9.188;2023-08-31T09:16:50;98244.00;;;17.60
35582;BMP180;21687;48.900;9.188;2023-08-31T09:19:24;98249.00;;;17.80
35582;BMP180;21687;48.900;9.188;2023-08-31T09:21:55;98249.00;;;17.60
35582;BMP180;21687;48.900;9.188;2023-08-31T09:24:22;98252.00;;;17.40
35582;BMP180;21687;48.900;9.188;2023-08-31T09:26:58;98245.00;;;17.60
35582;BMP180;21687;48.900;9.188;2023-08-31T09:29:25;98246.00;;;17.80
35582;BMP180;21687;48.900;9.188;2023-08-31T09:31:51;98255.00;;;17.80
35582;BMP180;21687;48.900;9.188;2023-08-31T09:34:18;98248.00;;;17.70
35582;BMP180;21687;48.900;9.188;2023-08-31T09:36:45;98242.00;;;17.90
35582;BMP180;21687;48.900;9.188;2023-08-31T09:39:15;98230.00;;;17.90
35582;BMP180;21687;48.900;9.188;2023-08-31T09:41:57;98245.00;;;17.80
35582;BMP180;21687;48.900;9.188;2023-08-31T09:44:26;98245.00;;;17.80
35582;BMP180;21687;48.900;9.188;2023-08-31T09:46:52;98241.00;;;17.90
35582;BMP180;21687;48.900;9.188;2023-08-31T09:49:21;98240.00;;;17.90
35582;BMP180;21687;48.900;9.188;2023-08-31T09:51:49;98241.00;;;18.00
35582;BMP180;21687;48.900;9.188;2023-08-31T09:54:17;98245.00;;;18.40
35582;BMP180;21687;48.900;9.188;2023-08-31T09:56:45;98250.00;;;18.30
35582;BMP180;21687;48.900;9.188;2023-08-31T09:59:13;98243.00;;;18.10
35582;BMP180;21687;48.900;9.188;2023-08-31T10:01:41;98255.00;;;18.10
35582;BMP180;21687;48.900;9.188;2023-08-31T10:04:09;98259.00;;;18.20
35582;BMP180;21687;48.900;9.188;2023-08-31T10:06:35;98256.00;;;18.30
35582;BMP180;21687;48.900;9.188;2023-08-31T10:09:03;98255.00;;;18.30
35582;BMP180;21687;48.900;9.188;2023-08-31T10:11:31;98253.00;;;18.60
35582;BMP180;21687;48.900;9.188;2023-08-31T10:13:58;98247.00;;;18.60
35582;BMP180;21687;48.900;9.188;2023-08-31T10:16:28;98255.00;;;18.80
35582;BMP180;21687;48.900;9.188;2023-08-31T10:18:56;98258.00;;;18.70
35582;BMP180;21687;48.900;9.188;2023-08-31T10:21:22;98261.00;;;18.80
35582;BMP180;21687;48.900;9.188;2023-08-31T10:23:50;98250.00;;;18.60
35582;BMP180;21687;48.900;9.188;2023-08-31T10:26:24;98262.00;;;18.70
35582;BMP180;21687;48.900;9.188;2023-08-31T10:28:51;98257.00;;;18.90
35582;BMP180;21687;48.900;9.188;2023-08-31T10:31:18;98261.00;;;19.00
35582;BMP180;21687;48.900;9.188;2023-08-31T10:34:01;98269.00;;;18.90
35582;BMP180;21687;48.900;9.188;2023-08-31T10:36:41;98259.00;;;19.00
35582;BMP180;21687;48.900;9.188;2023-08-31T10:39:18;98262.00;;;19.00
35582;BMP180;21687;48.900;9.188;2023-08-31T10:41:54;98269.00;;;19.00
35582;BMP180;21687;48.900;9.188;2023-08-31T10:44:30;98263.00;;;19.00
35582;BMP180;21687;48.900;9.188;2023-08-31T10:47:00;98257.00;;;19.10
35582;BMP180;21687;48.900;9.188;2023-08-31T10:49:32;98268.00;;;19.40
35582;BMP180;21687;48.900;9.188;2023-08-31T10:52:16;98258.00;;;19.40
35582;BMP180;21687;48.900;9.188;2023-08-31T10:54:45;98258.00;;;19.40
35582;BMP180;21687;48.900;9.188;2023-08-31T10:57:12;98259.00;;;19.40
35582;BMP180;21687;48.900;9.188;2023-08-31T11:02:43;98266.00;;;19.30
35582;BMP180;21687;48.900;9.188;2023-08-31T11:05:14;98266.00;;;19.30
35582;BMP180;21687;48.900;9.188;2023-08-31T11:07:42;98261.00;;;19.30
35582;BMP180;21687;48.900;9.188;2023-08-31T11:10:16;98267.00;;;19.50
35582;BMP180;21687;48.900;9.188;2023-08-31T11:12:50;98262.00;;;19.50
35582;BMP180;21687;48.900;9.188;2023-08-31T11:15:22;98263.00;;;19.40
35582;BMP180;21687;48.900;9.188;2023-08-31T11:17:53;98254.00;;;19.60
35582;BMP180;21687;48.900;9.188;2023-08-31T11:20:21;98267.00;;;19.70
35582;BMP180;21687;48.900;9.188;2023-08-31T11:22:52;98256.00;;;19.30
35582;BMP180;21687;48.900;9.188;2023-08-31T11:25:21;98251.00;;;19.50
35582;BMP180;21687;48.900;9.188;2023-08-31T11:28:05;98256.00;;;19.70
35582;BMP180;21687;48.900;9.188;2023-08-31T11:30:33;98249.00;;;19.70
35582;BMP180;21687;48.900;9.188;2023-08-31T11:33:07;98256.00;;;19.90
35582;BMP180;21687;48.900;9.188;2023-08-31T11:35:38;98255.00;;;20.20
35582;BMP180;21687;48.900;9.188;2023-08-31T11:38:06;98255.00;;;20.10
35582;BMP180;21687;48.900;9.188;2023-08-31T11:40:33;98251.00;;;20.20
35582;BMP180;21687;48.900;9.188;2023-08-31T11:42:59;98257.00;;;20.10
35582;BMP180;21687;48.900;9.188;2023-08-31T11:45:36;98252.00;;;20.10
35582;BMP180;21687;48.900;9.188;2023-08-31T11:48:04;98246.00;;;20.30
35582;BMP180;21687;48.900;9.188;2023-08-31T11:50:31;98242.00;;;20.50
35582;BMP180;21687;48.900;9.188;2023-08-31T11:52:57;98238.00;;;20.60
35582;BMP180;21687;48.900;9.188;2023-08-31T11:55:23;98239.00;;;20.70
35582;BMP180;21687;48.900;9.188;2023-08-31T11:57:51;98239.00;;;20.90
35582;BMP180;21687;48.900;9.188;2023-08-31T12:00:19;98239.00;;;20.90
35582;BMP180;21687;48.900;9.188;2023-08-31T12:02:53;98242.00;;;21.00
35582;BMP180;21687;48.900;9.188;2023-08-31T12:05:20;98248.00;;;21.10
35582;BMP180;21687;48.900;9.188;2023-08-31T12:07:46;98254.00;;;21.00
35582;BMP180;21687;48.900;9.188;2023-08-31T12:10:15;98242.00;;;20.80
35582;BMP180;21687;48.900;9.188;2023-08-31T12:12:41;98242.00;;;20.80
35582;BMP180;21687;48.900;9.188;2023-08-31T12:15:07;98240.00;;;21.00
35582;BMP180;21687;48.900;9.188;2023-08-31T12:17:38;98246.00;;;20.90
35582;BMP180;21687;48.900;9.188;2023-08-31T12:20:06;98252.00;;;21.00
35582;BMP180;21687;48.900;9.188;2023-08-31T12:22:33;98254.00;;;20.80
35582;BMP180;21687;48.900;9.188;2023-08-31T12:24:59;98252.00;;;20.70
35582;BMP180;21687;48.900;9.188;2023-08-31T12:27:25;98242.00;;;20.60
35582;BMP180;21687;48.900;9.188;2023-08-31T12:29:52;98248.00;;;20.50
35582;BMP180;21687;48.900;9.188;2023-08-31T12:32:18;98249.00;;;20.40
35582;BMP180;21687;48.900;9.188;2023-08-31T12:34:44;98241.00;;;20.30
35582;BMP180;21687;48.900;9.188;2023-08-31T12:37:11;98235.00;;;20.40
35582;BMP180;21687;48.900;9.188;2023-08-31T12:39:39;98238.00;;;20.50
35582;BMP180;21687;48.900;9.188;2023-08-31T12:42:05;98235.00;;;20.70
35582;BMP180;21687;48.900;9.188;2023-08-31T12:44:32;98234.00;;;21.00
35582;BMP180;21687;48.900;9.188;2023-08-31T12:46:58;98241.00;;;21.00
35582;BMP180;21687;48.900;9.188;2023-08-31T12:49:25;98240.00;;;21.00
35582;BMP180;21687;48.900;9.188;2023-08-31T12:51:51;98226.00;;;21.00
35582;BMP180;21687;48.900;9.188;2023-08-31T12:54:18;98249.00;;;21.00
35582;BMP180;21687;48.900;9.188;2023-08-31T12:56:44;98236.00;;;20.90
35582;BMP180;21687;48.900;9.188;2023-08-31T12:59:11;98242.00;;;20.70
35582;BMP180;21687;48.900;9.188;2023-08-31T13:01:37;98240.00;;;20.50
35582;BMP180;21687;48.900;9.188;2023-08-31T13:04:04;98247.00;;;20.60
35582;BMP180;21687;48.900;9.188;2023-08-31T13:06:31;98247.00;;;20.60
35582;BMP180;21687;48.900;9.188;2023-08-31T13:08:57;98248.00;;;20.40
35582;BMP180;21687;48.900;9.188;2023-08-31T13:11:23;98252.00;;;20.40
35582;BMP180;21687;48.900;9.188;2023-08-31T13:13:50;98252.00;;;20.70
35582;BMP180;21687;48.900;9.188;2023-08-31T13:16:18;98257.00;;;20.80
35582;BMP180;21687;48.900;9.188;2023-08-31T13:18:44;98255.00;;;20.40
35582;BMP180;21687;48.900;9.188;2023-08-31T13:21:12;98256.00;;;20.50
35582;BMP180;21687;48.900;9.188;2023-08-31T13:23:38;98240.00;;;20.20
35582;BMP180;21687;48.900;9.188;2023-08-31T13:26:05;98246.00;;;20.10
35582;BMP180;21687;48.900;9.188;2023-08-31T13:28:31;98244.00;;;20.10
35582;BMP180;21687;48.900;9.188;2023-08-31T13:30:58;98235.00;;;20.10
35582;BMP180;21687;48.900;9.188;2023-08-31T13:33:26;98238.00;;;20.10
35582;BMP180;21687;48.900;9.188;2023-08-31T13:35:59;98232.00;;;20.30
35582;BMP180;21687;48.900;9.188;2023-08-31T13:38:26;98234.00;;;20.30
35582;BMP180;21687;48.900;9.188;2023-08-31T13:40:56;98229.00;;;20.40
35582;BMP180;21687;48.900;9.188;2023-08-31T13:43:23;98224.00;;;20.50
35582;BMP180;21687;48.900;9.188;2023-08-31T13:45:50;98222.00;;;20.50
35582;BMP180;21687;48.900;9.188;2023-08-31T13:48:17;98224.00;;;20.80
35582;BMP180;21687;48.900;9.188;2023-08-31T13:50:44;98226.00;;;20.90
35582;BMP180;21687;48.900;9.188;2023-08-31T13:53:12;98218.00;;;21.00
35582;BMP180;21687;48.900;9.188;2023-08-31T13:55:38;98225.00;;;21.10
35582;BMP180;21687;48.900;9.188;2023-08-31T13:58:05;98216.00;;;21.20
35582;BMP180;21687;48.900;9.188;2023-08-31T14:00:35;98227.00;;;21.00
35582;BMP180;21687;48.900;9.188;2023-08-31T14:03:03;98224.00;;;21.00
35582;BMP180;21687;48.900;9.188;2023-08-31T14:05:30;98233.00;;;20.80
35582;BMP180;21687;48.900;9.188;2023-08-31T14:07:57;98237.00;;;20.40
35582;BMP180;21687;48.900;9.188;2023-08-31T14:10:24;98230.00;;;20.30
35582;BMP180;21687;48.900;9.188;2023-08-31T14:12:51;98232.00;;;20.10
35582;BMP180;21687;48.900;9.188;2023-08-31T14:15:17;98237.00;;;19.80
35582;BMP180;21687;48.900;9.188;2023-08-31T14:17:44;98235.00;;;19.90
35582;BMP180;21687;48.900;9.188;2023-08-31T14:20:11;98244.00;;;19.80
35582;BMP180;21687;48.900;9.188;2023-08-31T14:22:37;98246.00;;;19.60